Time;durP1;ratioP1;P1;durP2;ratioP2;P2;SDS_P1;SDS_P2;PMS_P1;PMS_P2;Temp;Humidity;BMP_temperature;BMP_pressure;BME280_temperature;BME280_humidity;BME280_pressure;Samples;Min_cycle;Max_cycle;Signal;HPM_P1;HPM_P2
2021/07/07 00:04:24;;;;;;;2.30;1.40;;;;;;;;;;10135460;29;20202;-72
2021/07/07 00:09:27;;;;;;;3.57;1.63;;;;;;;;;;10132882;29;20720;-71
2021/07/07 00:14:29;;;;;;;3.87;1.80;;;;;;;;;;10135803;29;20221;-72
2021/07/07 00:19:33;;;;;;;1.90;1.10;;;;;;;;;;10128869;29;20217;-71
2021/07/07 00:24:36;;;;;;;1.50;1.20;;;;;;;;;;10135200;29;20236;-72
2021/07/07 00:29:38;;;;;;;2.10;1.47;;;;;;;;;;10132056;29;20345;-72
2021/07/07 00:34:42;;;;;;;1.83;1.30;;;;;;;;;;10131012;29;20212;-72
2021/07/07 00:39:45;;;;;;;2.83;1.70;;;;;;;;;;10135616;29;20277;-72
2021/07/07 00:44:47;;;;;;;1.70;1.30;;;;;;;;;;10130158;29;20389;-72
2021/07/07 00:49:51;;;;;;;2.77;1.33;;;;;;;;;;10131831;29;20214;-73
2021/07/07 00:54:54;;;;;;;1.80;1.30;;;;;;;;;;10130371;29;20202;-72
2021/07/07 00:59:57;;;;;;;2.97;1.57;;;;;;;;;;10132093;29;20765;-72
2021/07/07 01:05:01;;;;;;;3.40;1.53;;;;;;;;;;10134532;29;20213;-71
2021/07/07 01:10:04;;;;;;;2.60;1.40;;;;;;;;;;10127881;29;20236;-72
2021/07/07 01:15:08;;;;;;;3.00;1.60;;;;;;;;;;10131469;29;20289;-72
2021/07/07 01:20:13;;;;;;;1.93;1.33;;;;;;;;;;10129719;29;20229;-71
2021/07/07 01:25:18;;;;;;;1.90;1.37;;;;;;;;;;10127814;29;20223;-71
2021/07/07 01:30:22;;;;;;;2.57;1.40;;;;;;;;;;10130082;29;20304;-71
2021/07/07 01:35:24;;;;;;;2.73;1.50;;;;;;;;;;10127806;29;20242;-71
2021/07/07 01:40:30;;;;;;;2.47;1.53;;;;;;;;;;10132683;29;20221;-72
2021/07/07 01:45:33;;;;;;;2.23;1.10;;;;;;;;;;10129266;29;20333;-73
2021/07/07 01:50:35;;;;;;;2.90;1.40;;;;;;;;;;10130541;29;20253;-71
2021/07/07 01:55:39;;;;;;;2.57;1.43;;;;;;;;;;10130372;29;20209;-71
2021/07/07 02:00:42;;;;;;;3.53;1.40;;;;;;;;;;10128185;29;20218;-72
2021/07/07 02:05:45;;;;;;;2.13;1.50;;;;;;;;;;10130018;29;20205;-71
2021/07/07 02:10:48;;;;;;;5.47;2.37;;;;;;;;;;10130616;29;20309;-71
2021/07/07 02:15:51;;;;;;;2.57;1.50;;;;;;;;;;10128003;29;20205;-71
2021/07/07 02:20:54;;;;;;;3.00;1.60;;;;;;;;;;10125989;29;20214;-72
2021/07/07 02:25:58;;;;;;;2.67;1.53;;;;;;;;;;10127871;29;20212;-71
2021/07/07 02:31:00;;;;;;;4.63;1.60;;;;;;;;;;10127686;29;20251;-71
2021/07/07 02:36:03;;;;;;;2.67;1.47;;;;;;;;;;10129427;29;20205;-72
2021/07/07 02:41:07;;;;;;;2.67;1.73;;;;;;;;;;10131581;29;20930;-72
2021/07/07 02:46:10;;;;;;;2.87;1.60;;;;;;;;;;10141339;29;20311;-72
2021/07/07 02:51:13;;;;;;;4.23;1.73;;;;;;;;;;10182382;29;20746;-72
2021/07/07 02:56:17;;;;;;;3.90;2.13;;;;;;;;;;10166057;29;20316;-73
2021/07/07 03:01:21;;;;;;;2.90;1.70;;;;;;;;;;10185995;29;20236;-71
2021/07/07 03:06:23;;;;;;;3.13;1.67;;;;;;;;;;10176738;29;20791;-73
2021/07/07 03:11:27;;;;;;;3.90;1.90;;;;;;;;;;10171677;29;20217;-73
2021/07/07 03:16:30;;;;;;;3.33;2.00;;;;;;;;;;10183153;29;20206;-73
2021/07/07 03:21:32;;;;;;;2.83;1.73;;;;;;;;;;10168610;29;20210;-72
2021/07/07 03:26:37;;;;;;;2.60;1.80;;;;;;;;;;10179353;29;20241;-73
2021/07/07 03:31:39;;;;;;;2.57;1.80;;;;;;;;;;10177067;29;20252;-72
2021/07/07 03:36:42;;;;;;;2.50;1.77;;;;;;;;;;10168268;29;20205;-72
2021/07/07 03:41:46;;;;;;;2.83;1.67;;;;;;;;;;10175637;29;20220;-72
2021/07/07 03:46:48;;;;;;;4.13;1.60;;;;;;;;;;10178566;29;20198;-71
2021/07/07 03:51:51;;;;;;;2.70;1.67;;;;;;;;;;10166042;29;20277;-71
2021/07/07 03:56:55;;;;;;;3.87;1.80;;;;;;;;;;10181172;29;20272;-72
2021/07/07 04:01:58;;;;;;;2.53;1.70;;;;;;;;;;10175999;29;20226;-71
2021/07/07 04:07:00;;;;;;;6.13;2.17;;;;;;;;;;10182477;29;20303;-72
2021/07/07 04:12:04;;;;;;;4.80;1.80;;;;;;;;;;10182378;29;20276;-71
2021/07/07 04:17:29;;;;;;;3.53;1.80;;;;;;;;;;10174922;29;20209;-73
2021/07/07 04:22:52;;;;;;;3.80;1.80;;;;;;;;;;10181673;29;20233;-71
2021/07/07 04:28:16;;;;;;;1.93;1.43;;;;;;;;;;10172245;29;20291;-74
2021/07/07 04:33:38;;;;;;;3.33;1.80;;;;;;;;;;10173215;29;20309;-72
2021/07/07 04:39:01;;;;;;;4.70;1.80;;;;;;;;;;10172816;29;20265;-70
2021/07/07 04:44:25;;;;;;;3.17;2.00;;;;;;;;;;10177083;29;20197;-71
2021/07/07 04:49:46;;;;;;;3.97;1.93;;;;;;;;;;10180906;29;20237;-72
2021/07/07 04:55:08;;;;;;;6.17;2.30;;;;;;;;;;10181446;29;20217;-71
2021/07/07 05:00:31;;;;;;;4.00;2.20;;;;;;;;;;10182698;29;20224;-70
2021/07/07 05:05:34;;;;;;;4.57;2.20;;;;;;;;;;10186215;29;20213;-70
2021/07/07 05:10:39;;;;;;;3.63;2.00;;;;;;;;;;10192823;29;20745;-72
2021/07/07 05:15:43;;;;;;;3.30;1.90;;;;;;;;;;10158367;29;20197;-72
2021/07/07 05:20:46;;;;;;;2.93;1.67;;;;;;;;;;10179193;29;20257;-68
2021/07/07 05:25:49;;;;;;;3.60;1.63;;;;;;;;;;10166967;29;20237;-73
2021/07/07 05:30:53;;;;;;;3.37;1.67;;;;;;;;;;10157173;29;20762;-72
2021/07/07 05:35:56;;;;;;;4.63;1.70;;;;;;;;;;10171393;29;20232;-72
2021/07/07 05:40:58;;;;;;;2.80;1.60;;;;;;;;;;10160946;29;20228;-72
2021/07/07 05:46:02;;;;;;;2.70;1.63;;;;;;;;;;10165813;29;20221;-72
2021/07/07 05:51:06;;;;;;;4.77;2.00;;;;;;;;;;10181659;29;20272;-72
2021/07/07 05:56:09;;;;;;;2.47;1.43;;;;;;;;;;10172855;29;20855;-72
2021/07/07 06:01:13;;;;;;;2.47;1.30;;;;;;;;;;10171229;29;20329;-72
2021/07/07 06:06:16;;;;;;;2.93;1.57;;;;;;;;;;10175670;29;20198;-70
2021/07/07 06:11:18;;;;;;;2.00;1.30;;;;;;;;;;10185847;29;20262;-72
2021/07/07 06:16:22;;;;;;;3.30;1.20;;;;;;;;;;10170509;29;20305;-72
2021/07/07 06:21:25;;;;;;;4.73;1.13;;;;;;;;;;10179888;29;20646;-72
2021/07/07 06:26:31;;;;;;;7.70;3.20;;;;;;;;;;10172027;29;20280;-72
2021/07/07 06:31:36;;;;;;;2.77;1.50;;;;;;;;;;10176541;29;20588;-72
2021/07/07 06:36:39;;;;;;;3.17;1.40;;;;;;;;;;10178298;29;20201;-72
2021/07/07 06:41:41;;;;;;;3.23;1.40;;;;;;;;;;10185719;29;20661;-72
2021/07/07 06:46:45;;;;;;;2.40;1.17;;;;;;;;;;10166512;29;20741;-73
2021/07/07 06:51:49;;;;;;;2.43;1.53;;;;;;;;;;10181257;29;20232;-73
2021/07/07 06:56:52;;;;;;;2.30;1.43;;;;;;;;;;10163958;29;20222;-72
2021/07/07 07:01:55;;;;;;;3.23;1.23;;;;;;;;;;10170810;29;20617;-73
2021/07/07 07:06:58;;;;;;;2.80;1.90;;;;;;;;;;10164511;29;20197;-73
2021/07/07 07:12:01;;;;;;;2.17;1.20;;;;;;;;;;10161220;29;20281;-74
2021/07/07 07:17:05;;;;;;;4.07;1.10;;;;;;;;;;10170085;29;20824;-74
2021/07/07 07:22:07;;;;;;;3.10;1.40;;;;;;;;;;10161876;29;20221;-73
2021/07/07 07:27:10;;;;;;;6.60;2.77;;;;;;;;;;10165186;29;20616;-73
2021/07/07 07:32:14;;;;;;;1.70;1.30;;;;;;;;;;10163724;29;20236;-74
2021/07/07 07:37:23;;;;;;;2.63;1.20;;;;;;;;;;10147454;29;20554;-73
2021/07/07 07:42:26;;;;;;;5.53;2.50;;;;;;;;;;10174697;29;20493;-74
2021/07/07 07:47:30;;;;;;;2.53;1.43;;;;;;;;;;10170047;29;20272;-73
2021/07/07 07:52:49;;;;;;;10.97;7.13;;;;;;;;;;10168642;29;20296;-73
2021/07/07 07:57:52;;;;;;;5.60;3.20;;;;;;;;;;10170483;29;20218;-71
2021/07/07 08:02:56;;;;;;;3.13;1.40;;;;;;;;;;10172045;29;20654;-73
2021/07/07 08:08:01;;;;;;;7.23;3.63;;;;;;;;;;10173336;29;20288;-73
2021/07/07 08:13:05;;;;;;;2.57;1.30;;;;;;;;;;10168848;29;20237;-72
2021/07/07 08:18:09;;;;;;;2.70;1.50;;;;;;;;;;10172459;29;20198;-73
2021/07/07 08:23:12;;;;;;;5.10;2.27;;;;;;;;;;10172098;29;20872;-73
2021/07/07 08:28:14;;;;;;;4.47;2.00;;;;;;;;;;10170638;29;20201;-74
2021/07/07 08:33:18;;;;;;;6.60;2.17;;;;;;;;;;10169279;29;20218;-74
2021/07/07 08:38:21;;;;;;;3.47;1.50;;;;;;;;;;10169813;29;20504;-73
2021/07/07 08:43:24;;;;;;;4.50;1.60;;;;;;;;;;10170138;29;20221;-74
2021/07/07 08:48:28;;;;;;;4.83;1.57;;;;;;;;;;10169300;29;20264;-73
2021/07/07 08:53:31;;;;;;;3.40;1.53;;;;;;;;;;10167408;29;20220;-74
2021/07/07 08:58:34;;;;;;;4.40;2.25;;;;;;;;;;10166061;29;20209;-73
2021/07/07 09:03:42;;;;;;;4.55;2.42;;;;;;;;;;10171691;29;20265;-73
2021/07/07 09:08:46;;;;;;;6.27;3.20;;;;;;;;;;10165646;29;20649;-72
2021/07/07 09:13:49;;;;;;;5.07;2.83;;;;;;;;;;10167591;29;20269;-73
2021/07/07 09:18:54;;;;;;;4.03;2.37;;;;;;;;;;10170595;29;20705;-71
2021/07/07 09:23:57;;;;;;;7.03;3.13;;;;;;;;;;10165912;29;20205;-72
2021/07/07 09:29:00;;;;;;;5.23;2.97;;;;;;;;;;10164225;29;20225;-72
2021/07/07 09:34:14;;;;;;;11.20;6.70;;;;;;;;;;10165798;29;20343;-72
2021/07/07 09:39:17;;;;;;;5.83;2.60;;;;;;;;;;10167318;29;20244;-73
2021/07/07 09:44:20;;;;;;;7.47;3.63;;;;;;;;;;10175967;29;20200;-72
2021/07/07 09:49:25;;;;;;;4.72;2.42;;;;;;;;;;10168705;29;20218;-72
2021/07/07 09:54:28;;;;;;;5.90;2.58;;;;;;;;;;10174984;29;20304;-73
2021/07/07 09:59:30;;;;;;;2.95;2.00;;;;;;;;;;10147701;29;20422;-71
2021/07/07 10:04:37;;;;;;;5.65;2.25;;;;;;;;;;10167439;29;20314;-72
2021/07/07 10:09:40;;;;;;;5.78;2.60;;;;;;;;;;10166609;29;20297;-72
2021/07/07 10:14:44;;;;;;;4.57;2.50;;;;;;;;;;10167651;29;20230;-73
2021/07/07 10:19:48;;;;;;;4.95;2.55;;;;;;;;;;10167885;29;20630;-74
2021/07/07 10:24:50;;;;;;;3.67;2.17;;;;;;;;;;10166803;29;20291;-72
2021/07/07 10:29:53;;;;;;;5.63;2.30;;;;;;;;;;10165221;29;20244;-72
2021/07/07 10:35:02;;;;;;;4.63;2.22;;;;;;;;;;10165853;29;20289;-72
2021/07/07 10:40:24;;;;;;;3.30;1.80;;;;;;;;;;10165146;29;20210;-73
2021/07/07 10:45:31;;;;;;;3.35;1.75;;;;;;;;;;10174162;29;20641;-73
2021/07/07 10:50:35;;;;;;;3.67;2.25;;;;;;;;;;10171505;29;20241;-73
2021/07/07 10:55:41;;;;;;;2.20;1.70;;;;;;;;;;10173296;29;20213;-73
2021/07/07 11:00:43;;;;;;;3.42;1.80;;;;;;;;;;10183454;29;20237;-72
2021/07/07 11:05:47;;;;;;;1.70;1.55;;;;;;;;;;10172332;29;20276;-73
2021/07/07 11:10:54;;;;;;;2.35;1.50;;;;;;;;;;10177374;29;20323;-72
2021/07/07 11:15:57;;;;;;;4.03;1.60;;;;;;;;;;10168010;29;20217;-72
2021/07/07 11:21:03;;;;;;;1.70;1.60;;;;;;;;;;10165337;29;20217;-72
2021/07/07 11:26:06;;;;;;;1.95;1.40;;;;;;;;;;10165421;29;20197;-72
2021/07/07 11:31:09;;;;;;;5.53;2.58;;;;;;;;;;10166054;29;20214;-72
2021/07/07 11:36:14;;;;;;;1.45;1.35;;;;;;;;;;10165799;29;20215;-72
2021/07/07 11:41:17;;;;;;;2.53;1.63;;;;;;;;;;10173757;29;20634;-73
2021/07/07 11:46:19;;;;;;;2.42;1.30;;;;;;;;;;10174532;29;20276;-71
2021/07/07 11:51:24;;;;;;;2.40;1.50;;;;;;;;;;10172772;29;20677;-72
2021/07/07 11:56:26;;;;;;;2.08;1.40;;;;;;;;;;10168241;29;20297;-73
2021/07/07 12:01:29;;;;;;;4.97;2.08;;;;;;;;;;10169852;29;20293;-72
2021/07/07 12:06:34;;;;;;;2.88;1.70;;;;;;;;;;10162230;29;20250;-73
2021/07/07 12:11:37;;;;;;;3.38;1.70;;;;;;;;;;10171111;29;20214;-74
2021/07/07 12:16:40;;;;;;;1.90;1.50;;;;;;;;;;10166613;29;20220;-72
2021/07/07 12:21:45;;;;;;;2.65;1.40;;;;;;;;;;10159517;29;20230;-72
2021/07/07 12:26:49;;;;;;;2.30;1.50;;;;;;;;;;10177772;29;20347;-72
2021/07/07 12:31:53;;;;;;;3.67;1.60;;;;;;;;;;10172605;29;20305;-72
2021/07/07 12:36:58;;;;;;;10.00;6.97;;;;;;;;;;10174295;29;20248;-72
2021/07/07 12:42:04;;;;;;;3.38;1.80;;;;;;;;;;10184092;29;20218;-73
2021/07/07 12:47:13;;;;;;;2.67;1.70;;;;;;;;;;10169139;29;20220;-73
2021/07/07 12:52:18;;;;;;;2.42;1.65;;;;;;;;;;10187531;29;20714;-73
2021/07/07 12:57:21;;;;;;;2.15;1.50;;;;;;;;;;10166102;29;20210;-74
2021/07/07 13:02:24;;;;;;;3.67;1.60;;;;;;;;;;10165806;29;20249;-73
2021/07/07 13:07:28;;;;;;;2.10;1.33;;;;;;;;;;10179368;29;20266;-73
2021/07/07 13:12:30;;;;;;;2.50;1.33;;;;;;;;;;10165358;29;20905;-73
2021/07/07 13:17:33;;;;;;;1.58;1.10;;;;;;;;;;10163257;29;20236;-73
2021/07/07 13:22:37;;;;;;;1.70;1.27;;;;;;;;;;10174457;29;20269;-73
2021/07/07 13:27:39;;;;;;;3.78;1.40;;;;;;;;;;10168675;29;21539;-73
2021/07/07 13:32:47;;;;;;;2.15;1.40;;;;;;;;;;10171902;29;20226;-73
2021/07/07 13:37:54;;;;;;;1.33;1.23;;;;;;;;;;10167645;29;20211;-73
2021/07/07 13:42:57;;;;;;;1.92;1.30;;;;;;;;;;10178989;29;20224;-73
2021/07/07 13:47:59;;;;;;;2.78;1.35;;;;;;;;;;10169269;29;20700;-74
2021/07/07 13:53:04;;;;;;;2.03;1.40;;;;;;;;;;10179437;29;20213;-73
2021/07/07 13:58:06;;;;;;;1.10;1.00;;;;;;;;;;10160789;29;20684;-73
2021/07/07 14:03:10;;;;;;;2.60;1.30;;;;;;;;;;10174194;29;20284;-74
2021/07/07 14:08:14;;;;;;;1.92;1.40;;;;;;;;;;10178123;29;20190;-73
2021/07/07 14:13:16;;;;;;;2.17;1.30;;;;;;;;;;10166229;29;20239;-73
2021/07/07 14:18:19;;;;;;;2.45;1.10;;;;;;;;;;10176379;29;20248;-74
2021/07/07 14:23:24;;;;;;;1.70;1.20;;;;;;;;;;10178812;29;20321;-74
2021/07/07 14:28:26;;;;;;;1.70;1.40;;;;;;;;;;10169999;29;20233;-72
2021/07/07 14:33:29;;;;;;;2.78;1.60;;;;;;;;;;10164127;29;20285;-74
2021/07/07 14:38:33;;;;;;;1.65;1.23;;;;;;;;;;10163544;29;20221;-72
2021/07/07 14:43:37;;;;;;;2.63;1.50;;;;;;;;;;10173494;29;20212;-73
2021/07/07 14:48:39;;;;;;;1.85;1.15;;;;;;;;;;10166847;29;20293;-73
2021/07/07 14:53:43;;;;;;;2.58;1.50;;;;;;;;;;10165989;29;20555;-74
2021/07/07 14:58:46;;;;;;;3.28;1.20;;;;;;;;;;10170159;29;20665;-74
2021/07/07 15:03:48;;;;;;;3.37;1.30;;;;;;;;;;10172629;29;20670;-73
2021/07/07 15:08:52;;;;;;;5.15;1.25;;;;;;;;;;10162682;29;20233;-74
2021/07/07 15:13:55;;;;;;;3.92;1.40;;;;;;;;;;10172722;29;20213;-74
2021/07/07 15:18:58;;;;;;;1.27;1.00;;;;;;;;;;10163456;29;20244;-74
2021/07/07 15:24:02;;;;;;;3.90;1.05;;;;;;;;;;10166070;29;20217;-72
2021/07/07 15:29:04;;;;;;;1.25;1.00;;;;;;;;;;10173501;29;20375;-73
2021/07/07 15:34:07;;;;;;;1.65;1.10;;;;;;;;;;10162072;29;20197;-73
2021/07/07 15:39:11;;;;;;;1.65;1.00;;;;;;;;;;10163509;29;20225;-72
2021/07/07 15:44:13;;;;;;;2.08;1.05;;;;;;;;;;10181464;29;20212;-73
2021/07/07 15:49:17;;;;;;;3.15;1.10;;;;;;;;;;10170747;29;20291;-74
2021/07/07 15:54:21;;;;;;;2.70;1.10;;;;;;;;;;10159356;29;20197;-73
2021/07/07 15:59:24;;;;;;;1.48;1.02;;;;;;;;;;10169606;29;20682;-74
2021/07/07 16:04:26;;;;;;;2.83;1.20;;;;;;;;;;10174788;29;20232;-73
2021/07/07 16:09:30;;;;;;;1.70;1.00;;;;;;;;;;10173805;29;20221;-73
2021/07/07 16:14:33;;;;;;;2.08;1.00;;;;;;;;;;10169979;29;20660;-73
2021/07/07 16:19:35;;;;;;;1.77;1.10;;;;;;;;;;10156660;29;20225;-73
2021/07/07 16:24:39;;;;;;;3.05;1.20;;;;;;;;;;10171165;29;20251;-73
2021/07/07 16:29:42;;;;;;;2.83;1.38;;;;;;;;;;10171451;29;20225;-74
2021/07/07 16:34:44;;;;;;;3.92;1.58;;;;;;;;;;10170790;29;20708;-74
2021/07/07 16:39:48;;;;;;;6.30;3.20;;;;;;;;;;10177549;29;20305;-74
2021/07/07 16:44:51;;;;;;;4.68;1.20;;;;;;;;;;10172563;29;20306;-73
2021/07/07 16:49:54;;;;;;;2.03;1.13;;;;;;;;;;10182615;29;20225;-75
2021/07/07 16:54:58;;;;;;;1.50;0.98;;;;;;;;;;10166250;29;20277;-74
2021/07/07 17:00:00;;;;;;;1.23;1.05;;;;;;;;;;10171649;29;20312;-73
2021/07/07 17:05:03;;;;;;;2.95;1.63;;;;;;;;;;10174856;29;20225;-73
2021/07/07 17:10:08;;;;;;;3.75;2.30;;;;;;;;;;10180170;29;20956;-73
2021/07/07 17:15:11;;;;;;;6.78;3.38;;;;;;;;;;10174211;29;20205;-73
2021/07/07 17:20:14;;;;;;;5.63;2.70;;;;;;;;;;10181672;29;20711;-74
2021/07/07 17:25:18;;;;;;;6.78;3.03;;;;;;;;;;10172948;29;20727;-74
2021/07/07 17:30:20;;;;;;;6.22;3.00;;;;;;;;;;10175699;29;20217;-75
2021/07/07 17:35:23;;;;;;;8.05;5.07;;;;;;;;;;10179949;29;20257;-73
2021/07/07 17:40:27;;;;;;;5.22;2.90;;;;;;;;;;10175217;29;20224;-74
2021/07/07 17:45:30;;;;;;;6.22;3.50;;;;;;;;;;10170563;29;20252;-73
2021/07/07 17:50:32;;;;;;;9.02;4.82;;;;;;;;;;10173290;29;20232;-76
2021/07/07 17:55:37;;;;;;;16.67;10.65;;;;;;;;;;10174856;29;20300;-75
2021/07/07 18:00:40;;;;;;;9.23;5.03;;;;;;;;;;10173429;29;20221;-73
2021/07/07 18:05:42;;;;;;;9.18;4.63;;;;;;;;;;10181477;29;20205;-72
2021/07/07 18:10:47;;;;;;;7.93;4.83;;;;;;;;;;10181560;29;20292;-73
2021/07/07 18:15:50;;;;;;;11.80;8.40;;;;;;;;;;10166651;29;20217;-71
2021/07/07 18:20:53;;;;;;;8.67;5.13;;;;;;;;;;10168924;29;20296;-73
2021/07/07 18:25:59;;;;;;;8.40;5.40;;;;;;;;;;10161440;29;20742;-73
2021/07/07 18:31:02;;;;;;;11.87;8.50;;;;;;;;;;10147882;29;20295;-73
2021/07/07 18:36:05;;;;;;;10.68;6.22;;;;;;;;;;10145577;29;20270;-71
2021/07/07 18:41:09;;;;;;;11.90;8.97;;;;;;;;;;10145664;29;20688;-72
2021/07/07 18:46:12;;;;;;;11.00;8.53;;;;;;;;;;10152899;29;20197;-71
2021/07/07 18:51:15;;;;;;;9.40;6.40;;;;;;;;;;10167261;29;20294;-72
2021/07/07 18:56:19;;;;;;;9.17;6.57;;;;;;;;;;10163919;29;20261;-72
2021/07/07 19:01:21;;;;;;;8.37;5.70;;;;;;;;;;10168541;29;20225;-74
2021/07/07 19:06:24;;;;;;;9.07;6.37;;;;;;;;;;10151108;29;20680;-72
2021/07/07 19:11:29;;;;;;;9.07;6.60;;;;;;;;;;10166291;29;20233;-72
2021/07/07 19:16:31;;;;;;;13.87;9.40;;;;;;;;;;10153945;29;20301;-72
2021/07/07 19:21:36;;;;;;;14.53;11.23;;;;;;;;;;10178073;29;20636;-73
2021/07/07 19:26:40;;;;;;;15.27;11.67;;;;;;;;;;10168342;29;20224;-73
2021/07/07 19:31:43;;;;;;;14.23;9.67;;;;;;;;;;10165311;29;20293;-72
2021/07/07 19:36:46;;;;;;;16.87;13.67;;;;;;;;;;10191559;29;20300;-72
2021/07/07 19:41:50;;;;;;;12.97;9.10;;;;;;;;;;10188069;29;20217;-73
2021/07/07 19:46:52;;;;;;;13.10;10.00;;;;;;;;;;10195344;29;20221;-73
2021/07/07 19:51:55;;;;;;;14.83;11.27;;;;;;;;;;10189122;29;20743;-73
2021/07/07 19:56:59;;;;;;;14.60;11.03;;;;;;;;;;10183231;29;20316;-74
2021/07/07 20:02:01;;;;;;;12.90;9.87;;;;;;;;;;10192680;29;20261;-74
2021/07/07 20:07:04;;;;;;;13.77;9.63;;;;;;;;;;10194612;29;20189;-74
2021/07/07 20:12:09;;;;;;;14.53;10.07;;;;;;;;;;10190521;29;20217;-73
2021/07/07 20:17:12;;;;;;;15.57;11.97;;;;;;;;;;10191495;29;20293;-73
2021/07/07 20:22:14;;;;;;;18.07;13.23;;;;;;;;;;10190286;29;20276;-73
2021/07/07 20:27:18;;;;;;;12.83;9.60;;;;;;;;;;10185576;29;20206;-75
2021/07/07 20:32:20;;;;;;;14.27;10.17;;;;;;;;;;10182383;29;20749;-74
2021/07/07 20:37:23;;;;;;;13.00;9.93;;;;;;;;;;10161686;29;20213;-75
2021/07/07 20:42:27;;;;;;;12.93;8.90;;;;;;;;;;10187392;29;20570;-72
2021/07/07 20:47:29;;;;;;;12.93;9.23;;;;;;;;;;10187895;29;20242;-72
2021/07/07 20:52:32;;;;;;;11.73;8.27;;;;;;;;;;10194868;29;20697;-74
2021/07/07 20:57:42;;;;;;;17.70;13.07;;;;;;;;;;10188517;29;20213;-70
2021/07/07 21:02:45;;;;;;;13.57;9.63;;;;;;;;;;10178483;29;20222;-73
2021/07/07 21:07:48;;;;;;;13.87;9.70;;;;;;;;;;10185448;29;20203;-73
2021/07/07 21:12:52;;;;;;;14.00;9.80;;;;;;;;;;10187162;29;20217;-73
2021/07/07 21:17:55;;;;;;;12.70;9.43;;;;;;;;;;10180115;29;20973;-73
2021/07/07 21:22:58;;;;;;;13.03;9.80;;;;;;;;;;10193944;29;20378;-74
2021/07/07 21:28:03;;;;;;;13.27;9.30;;;;;;;;;;10184041;29;20725;-73
2021/07/07 21:33:06;;;;;;;18.27;13.07;;;;;;;;;;10178787;29;20214;-73
2021/07/07 21:38:09;;;;;;;22.37;16.67;;;;;;;;;;10183808;29;20256;-73
2021/07/07 21:43:13;;;;;;;13.17;9.47;;;;;;;;;;10169823;29;20218;-72
2021/07/07 21:48:15;;;;;;;13.50;9.93;;;;;;;;;;10178705;29;20364;-74
2021/07/07 21:53:18;;;;;;;20.07;14.57;;;;;;;;;;10172116;29;20280;-74
2021/07/07 21:58:22;;;;;;;18.67;12.30;;;;;;;;;;10175981;29;20202;-74
2021/07/07 22:03:25;;;;;;;18.93;12.33;;;;;;;;;;10172366;29;20291;-73
2021/07/07 22:08:28;;;;;;;26.13;17.57;;;;;;;;;;10169871;29;20288;-74
2021/07/07 22:13:33;;;;;;;20.47;14.17;;;;;;;;;;10170855;29;20280;-73
2021/07/07 22:18:42;;;;;;;21.93;13.37;;;;;;;;;;10580423;27;1220526;-74
2021/07/07 22:23:45;;;;;;;21.60;13.90;;;;;;;;;;10568974;28;20203;-74
2021/07/07 22:28:47;;;;;;;19.67;12.70;;;;;;;;;;10580190;28;20297;-75
2021/07/07 22:33:51;;;;;;;19.70;13.93;;;;;;;;;;10567918;28;20190;-73
2021/07/07 22:38:53;;;;;;;17.07;11.97;;;;;;;;;;10581639;28;20213;-72
2021/07/07 22:43:57;;;;;;;23.50;16.33;;;;;;;;;;10587837;28;20763;-73
2021/07/07 22:49:00;;;;;;;18.17;12.10;;;;;;;;;;10586199;28;20285;-72
2021/07/07 22:54:03;;;;;;;20.97;11.83;;;;;;;;;;10588839;28;20212;-73
2021/07/07 22:59:05;;;;;;;16.43;11.07;;;;;;;;;;10585745;28;20580;-73
2021/07/07 23:04:09;;;;;;;15.97;10.63;;;;;;;;;;10587469;28;20194;-74
2021/07/07 23:09:12;;;;;;;16.20;10.23;;;;;;;;;;10584926;28;20237;-73
2021/07/07 23:14:15;;;;;;;14.73;9.83;;;;;;;;;;10586605;28;20198;-73
2021/07/07 23:19:19;;;;;;;14.17;9.80;;;;;;;;;;10592494;28;20210;-71
2021/07/07 23:24:27;;;;;;;15.73;8.83;;;;;;;;;;10592489;28;20240;-71
2021/07/07 23:29:30;;;;;;;15.37;10.13;;;;;;;;;;10548553;28;20238;-71
2021/07/07 23:34:34;;;;;;;15.60;10.17;;;;;;;;;;10533675;28;20223;-71
2021/07/07 23:39:36;;;;;;;16.00;9.53;;;;;;;;;;10557448;28;20250;-71
2021/07/07 23:44:39;;;;;;;16.37;9.70;;;;;;;;;;10564096;28;20210;-71
2021/07/07 23:49:43;;;;;;;15.73;9.10;;;;;;;;;;10540157;28;20306;-71
2021/07/07 23:54:47;;;;;;;15.83;9.67;;;;;;;;;;10545814;28;20259;-70
2021/07/07 23:59:50;;;;;;;13.97;9.20;;;;;;;;;;10548229;28;20639;-71
